Time;durP1;ratioP1;P1;durP2;ratioP2;P2;SDS_P1;SDS_P2;PMS_P1;PMS_P2;Temp;Humidity;BMP_temperature;BMP_pressure;BME280_temperature;BME280_humidity;BME280_pressure;Samples;Min_cycle;Max_cycle;Signal;HPM_P1;HPM_P2
2021/03/19 00:01:23;;;;;;;3.85;2.63;;;5.10;79.20;;;;;;4995506;28;20026;-91
2021/03/19 00:03:49;;;;;;;4.82;3.20;;;5.00;79.20;;;;;;4996777;28;20437;-91
2021/03/19 00:06:14;;;;;;;4.55;2.83;;;5.00;79.40;;;;;;4995812;28;20468;-92
2021/03/19 00:08:40;;;;;;;4.60;2.30;;;4.90;79.40;;;;;;4996318;28;20038;-93
2021/03/19 00:11:06;;;;;;;5.28;2.78;;;4.90;79.50;;;;;;4997652;28;20423;-94
2021/03/19 00:13:31;;;;;;;4.00;2.80;;;4.90;79.40;;;;;;4997471;28;20452;-93
2021/03/19 00:15:57;;;;;;;4.13;2.72;;;4.80;79.50;;;;;;4996099;28;20022;-94
2021/03/19 00:18:23;;;;;;;4.97;2.65;;;4.80;79.60;;;;;;4995405;28;20511;-93
2021/03/19 00:20:49;;;;;;;2.72;2.15;;;4.70;79.50;;;;;;4997269;28;20030;-95
2021/03/19 00:23:15;;;;;;;2.70;2.33;;;4.70;79.50;;;;;;4996127;28;20057;-93
2021/03/19 00:25:42;;;;;;;4.20;2.72;;;4.70;79.50;;;;;;4996827;28;20030;-92
2021/03/19 00:28:13;;;;;;;4.60;2.67;;;4.60;79.50;;;;;;4996385;28;20045;-92
2021/03/19 00:30:39;;;;;;;3.60;2.50;;;4.60;79.50;;;;;;4995949;28;20023;-92
2021/03/19 00:33:05;;;;;;;4.75;2.58;;;4.60;79.60;;;;;;4996740;28;20030;-92
2021/03/19 00:35:31;;;;;;;3.78;2.70;;;4.50;79.60;;;;;;4995847;28;20049;-92
2021/03/19 00:37:57;;;;;;;2.55;2.35;;;4.50;79.70;;;;;;4995181;28;20022;-92
2021/03/19 00:40:24;;;;;;;3.90;2.30;;;4.40;79.70;;;;;;4995506;28;20019;-92
2021/03/19 00:42:49;;;;;;;2.97;2.47;;;4.50;79.80;;;;;;4995567;28;20622;-92
2021/03/19 00:45:16;;;;;;;3.63;2.50;;;4.40;79.80;;;;;;4998055;28;20025;-92
2021/03/19 00:47:42;;;;;;;4.60;2.90;;;4.30;79.80;;;;;;4996518;28;20070;-91
2021/03/19 00:50:11;;;;;;;3.83;2.72;;;4.30;79.80;;;;;;4995008;28;20053;-91
2021/03/19 00:52:37;;;;;;;4.35;3.05;;;4.30;79.90;;;;;;4993850;28;20019;-90
2021/03/19 00:55:10;;;;;;;4.15;2.58;;;4.20;79.90;;;;;;4993170;28;20058;-89
2021/03/19 00:57:35;;;;;;;2.95;2.50;;;4.20;80.10;;;;;;4994136;28;20097;-90
2021/03/19 01:00:02;;;;;;;2.95;2.40;;;4.10;80.00;;;;;;4994159;28;20034;-90
2021/03/19 01:02:27;;;;;;;3.55;2.60;;;4.10;80.10;;;;;;4994758;28;20045;-90
2021/03/19 01:04:53;;;;;;;3.28;2.50;;;4.10;80.10;;;;;;4994131;28;20130;-90
2021/03/19 01:07:19;;;;;;;4.55;3.10;;;4.00;80.00;;;;;;4994016;28;20138;-88
2021/03/19 01:09:45;;;;;;;3.80;2.90;;;4.00;80.20;;;;;;4991940;28;20022;-89
2021/03/19 01:12:11;;;;;;;4.00;2.95;;;3.90;80.30;;;;;;4994749;28;20022;-90
2021/03/19 01:14:37;;;;;;;4.18;2.72;;;3.90;80.40;;;;;;4993368;28;20491;-90
2021/03/19 01:17:03;;;;;;;4.68;3.03;;;3.90;80.50;;;;;;4993512;28;20149;-90
2021/03/19 01:19:28;;;;;;;3.58;2.72;;;3.90;80.60;;;;;;4993187;28;20409;-91
2021/03/19 01:21:54;;;;;;;3.60;2.75;;;3.80;80.60;;;;;;4994268;28;20084;-91
2021/03/19 01:24:19;;;;;;;4.55;3.30;;;3.80;80.60;;;;;;4993296;28;20058;-91
2021/03/19 01:26:45;;;;;;;4.10;2.63;;;3.80;80.60;;;;;;4994464;28;20492;-90
2021/03/19 01:29:11;;;;;;;4.50;2.80;;;3.80;80.60;;;;;;4992901;28;20026;-90
2021/03/19 01:31:36;;;;;;;4.45;3.13;;;3.70;80.60;;;;;;4992820;28;20022;-90
2021/03/19 01:34:02;;;;;;;4.18;2.75;;;3.70;80.70;;;;;;4994578;28;20033;-91
2021/03/19 01:36:28;;;;;;;5.28;3.22;;;3.70;80.80;;;;;;4994595;28;20011;-92
2021/03/19 01:38:54;;;;;;;5.05;3.50;;;3.60;80.80;;;;;;4993102;28;20380;-92
2021/03/19 01:41:20;;;;;;;5.45;2.97;;;3.70;80.90;;;;;;4993797;28;20060;-91
2021/03/19 01:43:55;;;;;;;5.25;4.03;;;3.60;80.90;;;;;;4994238;28;20117;-91
2021/03/19 01:47:05;;;;;;;6.70;4.25;;;3.60;80.90;;;;;;4980656;28;20030;-90
2021/03/19 01:50:08;;;;;;;6.80;4.30;;;3.50;81.10;;;;;;4977991;28;20385;-93
2021/03/19 01:53:11;;;;;;;3.97;3.25;;;3.50;81.50;;;;;;4994566;28;20034;-95
2021/03/19 01:56:15;;;;;;;3.42;2.67;;;3.50;81.50;;;;;;4993703;28;20030;-94
2021/03/19 01:59:18;;;;;;;4.60;3.42;;;3.50;81.50;;;;;;4975066;28;20019;-93
2021/03/19 02:02:21;;;;;;;5.22;3.92;;;3.40;81.50;;;;;;4981739;28;20038;-91
2021/03/19 02:05:24;;;;;;;5.10;3.50;;;3.40;81.60;;;;;;4992797;28;20022;-91
2021/03/19 02:08:27;;;;;;;5.30;4.13;;;3.30;81.70;;;;;;4991926;28;20624;-92
2021/03/19 02:11:30;;;;;;;5.90;3.60;;;3.30;81.80;;;;;;4994112;28;20554;-93
2021/03/19 02:14:33;;;;;;;5.50;3.63;;;3.30;81.90;;;;;;4994412;28;20030;-93
2021/03/19 02:17:36;;;;;;;4.57;3.30;;;3.20;81.90;;;;;;4993006;28;20030;-92
2021/03/19 02:20:39;;;;;;;5.60;3.53;;;3.20;82.00;;;;;;4992894;28;20499;-90
2021/03/19 02:23:46;;;;;;;5.55;3.10;;;3.20;82.00;;;;;;4992486;28;20022;-91
2021/03/19 02:26:49;;;;;;;4.93;3.40;;;3.20;81.90;;;;;;4979426;28;20036;-91
2021/03/19 02:29:53;;;;;;;6.25;4.05;;;3.20;82.00;;;;;;4975675;28;20043;-91
2021/03/19 02:32:25;;;;;;;4.57;3.42;;;3.10;82.00;;;;;;4982591;28;20497;-91
2021/03/19 02:34:53;;;;;;;4.85;3.60;;;3.10;82.00;;;;;;4982335;28;20034;-91
2021/03/19 02:37:22;;;;;;;6.15;3.50;;;3.10;82.10;;;;;;4993745;28;20048;-95
2021/03/19 02:39:47;;;;;;;5.65;3.50;;;3.10;82.70;;;;;;4992407;28;20350;-94
2021/03/19 02:42:16;;;;;;;5.75;3.88;;;3.10;82.10;;;;;;4981139;28;20080;-95
2021/03/19 02:44:42;;;;;;;6.40;3.63;;;3.00;82.10;;;;;;4994185;28;20085;-95
2021/03/19 02:47:09;;;;;;;5.40;3.95;;;3.00;82.10;;;;;;4992318;28;20500;-95
2021/03/19 02:49:35;;;;;;;5.93;4.28;;;3.00;82.10;;;;;;4993709;28;20381;-94
2021/03/19 02:52:01;;;;;;;5.03;3.88;;;3.00;82.10;;;;;;4992034;28;20025;-95
2021/03/19 02:54:26;;;;;;;6.03;3.70;;;3.00;82.20;;;;;;4992478;28;20295;-93
2021/03/19 02:56:52;;;;;;;5.30;3.80;;;2.90;82.20;;;;;;4992149;28;20077;-91
2021/03/19 02:59:19;;;;;;;5.15;3.60;;;2.90;82.20;;;;;;4991586;28;20022;-92
2021/03/19 03:01:46;;;;;;;5.40;3.00;;;2.90;82.20;;;;;;4992819;28;20018;-91
2021/03/19 03:04:12;;;;;;;6.60;3.45;;;2.90;82.20;;;;;;4993273;28;20025;-92
2021/03/19 03:06:53;;;;;;;4.75;3.05;;;2.90;82.20;;;;;;4993057;28;20022;-92
2021/03/19 03:09:23;;;;;;;4.15;2.97;;;2.90;82.20;;;;;;4991634;28;20035;-91
2021/03/19 03:11:49;;;;;;;4.45;3.03;;;2.90;82.00;;;;;;4992528;28;20507;-91
2021/03/19 03:14:18;;;;;;;5.50;3.55;;;2.90;82.00;;;;;;4993237;28;20113;-91
2021/03/19 03:16:45;;;;;;;5.65;3.58;;;2.90;82.60;;;;;;4991098;28;20041;-91
2021/03/19 03:19:13;;;;;;;5.47;3.60;;;2.80;82.00;;;;;;4991652;28;20498;-92
2021/03/19 03:21:39;;;;;;;4.57;2.92;;;2.80;82.00;;;;;;4996303;28;20623;-92
2021/03/19 03:24:06;;;;;;;5.00;3.13;;;2.80;82.60;;;;;;4996061;28;20222;-90
2021/03/19 03:26:31;;;;;;;5.05;3.00;;;2.80;82.00;;;;;;4992898;28;20191;-90
2021/03/19 03:28:58;;;;;;;4.07;3.30;;;2.80;82.00;;;;;;4993525;28;20045;-91
2021/03/19 03:31:24;;;;;;;5.25;3.35;;;2.80;82.00;;;;;;4992006;28;20030;-91
2021/03/19 03:33:49;;;;;;;4.68;3.13;;;2.70;82.00;;;;;;4994089;28;20053;-91
2021/03/19 03:36:16;;;;;;;5.30;3.25;;;2.70;82.00;;;;;;5010725;28;20029;-91
2021/03/19 03:38:42;;;;;;;5.40;3.75;;;2.70;82.00;;;;;;5015305;28;20045;-94
2021/03/19 03:41:15;;;;;;;5.65;3.90;;;2.70;82.00;;;;;;5016788;28;20086;-94
2021/03/19 03:43:40;;;;;;;;;;;2.70;82.00;;;;;;5017111;28;20033;-95
2021/03/19 03:46:09;;;;;;;5.45;3.35;;;2.70;82.00;;;;;;5016581;28;19902;-96
2021/03/19 03:48:35;;;;;;;5.45;3.22;;;2.60;82.10;;;;;;5015876;28;20038;-95
2021/03/19 03:51:06;;;;;;;4.50;3.50;;;2.60;82.20;;;;;;5009976;28;20041;-93
2021/03/19 03:53:32;;;;;;;4.65;3.50;;;2.60;82.20;;;;;;5005090;28;20162;-92
2021/03/19 03:55:57;;;;;;;5.35;3.25;;;2.50;82.20;;;;;;5003610;28;20050;-93
2021/03/19 03:58:23;;;;;;;5.00;3.55;;;2.50;82.20;;;;;;5010530;28;20086;-94
2021/03/19 04:00:49;;;;;;;5.22;3.20;;;2.50;82.20;;;;;;5015995;28;20029;-94
2021/03/19 04:03:16;;;;;;;4.68;3.45;;;2.40;82.20;;;;;;5015857;28;20062;-95
2021/03/19 04:05:45;;;;;;;5.32;3.40;;;2.40;82.20;;;;;;5015738;28;20010;-94
2021/03/19 04:08:14;;;;;;;5.13;3.55;;;2.40;82.20;;;;;;5015694;28;20022;-93
2021/03/19 04:10:40;;;;;;;4.53;2.75;;;2.40;82.30;;;;;;5012404;28;20026;-93
2021/03/19 04:13:07;;;;;;;5.10;2.90;;;2.40;82.40;;;;;;5002558;28;20022;-93
2021/03/19 04:15:34;;;;;;;3.50;2.63;;;2.40;82.30;;;;;;5003307;28;20477;-93
2021/03/19 04:18:05;;;;;;;5.53;3.35;;;2.40;82.30;;;;;;5003709;28;20045;-91
2021/03/19 04:20:31;;;;;;;4.97;3.20;;;2.30;82.20;;;;;;4998004;28;20376;-93
2021/03/19 04:22:57;;;;;;;5.15;2.92;;;2.40;82.30;;;;;;4994466;28;20030;-94
2021/03/19 04:25:23;;;;;;;5.10;3.20;;;2.40;82.20;;;;;;4994157;28;20068;-95
2021/03/19 04:28:02;;;;;;;4.95;3.17;;;2.30;82.20;;;;;;4993301;28;20096;-93
2021/03/19 04:30:33;;;;;;;6.05;3.10;;;2.40;82.20;;;;;;4974179;28;20047;-93
2021/03/19 04:33:00;;;;;;;5.15;3.08;;;2.30;82.10;;;;;;4988836;28;20027;-94
2021/03/19 04:35:27;;;;;;;4.65;2.58;;;2.30;82.10;;;;;;4993027;28;20026;-94
2021/03/19 04:37:57;;;;;;;5.28;3.20;;;2.30;82.10;;;;;;4992837;28;20073;-94
2021/03/19 04:40:24;;;;;;;4.30;2.70;;;2.30;82.10;;;;;;4992766;28;20089;-93
2021/03/19 04:42:51;;;;;;;3.75;2.72;;;2.30;82.10;;;;;;4992782;28;20030;-92
2021/03/19 04:45:17;;;;;;;3.85;2.63;;;2.30;82.10;;;;;;4995964;28;20493;-92
2021/03/19 04:47:42;;;;;;;6.03;3.33;;;2.30;82.10;;;;;;4995876;28;20066;-93
2021/03/19 04:50:11;;;;;;;5.28;3.13;;;2.30;82.10;;;;;;4995029;28;20035;-92
2021/03/19 04:52:37;;;;;;;4.03;2.70;;;2.30;82.10;;;;;;4993547;28;20080;-92
2021/03/19 04:55:04;;;;;;;4.93;3.25;;;2.20;82.00;;;;;;4995313;28;20037;-91
2021/03/19 04:57:30;;;;;;;4.28;2.92;;;2.20;82.00;;;;;;4993468;28;20483;-92
2021/03/19 04:59:56;;;;;;;4.80;3.35;;;2.20;82.00;;;;;;4990960;28;20461;-92
2021/03/19 05:02:36;;;;;;;5.32;3.05;;;2.20;82.00;;;;;;4994410;28;20095;-91
2021/03/19 05:05:02;;;;;;;3.45;2.47;;;2.20;82.10;;;;;;4994882;28;20440;-91
2021/03/19 05:07:28;;;;;;;5.93;3.50;;;2.10;82.00;;;;;;4993703;28;20101;-91
2021/03/19 05:09:53;;;;;;;6.78;3.55;;;2.10;82.00;;;;;;4993475;28;20088;-93
2021/03/19 05:12:19;;;;;;;5.50;3.38;;;2.10;82.00;;;;;;4994584;28;20023;-92
2021/03/19 05:14:45;;;;;;;4.38;2.47;;;2.10;82.00;;;;;;4994905;28;20019;-92
2021/03/19 05:17:11;;;;;;;4.68;3.35;;;2.10;82.00;;;;;;4990641;28;20096;-92
2021/03/19 05:19:36;;;;;;;5.15;3.35;;;2.10;82.10;;;;;;4993800;28;20027;-89
2021/03/19 05:22:03;;;;;;;4.15;3.00;;;2.10;82.10;;;;;;4993620;28;20022;-90
2021/03/19 05:24:28;;;;;;;5.63;3.03;;;2.10;82.70;;;;;;4994221;28;20053;-90
2021/03/19 05:26:54;;;;;;;4.95;3.00;;;2.10;82.00;;;;;;4993835;28;20054;-89
2021/03/19 05:29:21;;;;;;;6.28;3.35;;;2.10;82.00;;;;;;4992698;28;20038;-92
2021/03/19 05:31:46;;;;;;;7.40;3.13;;;2.10;82.00;;;;;;4987434;28;20050;-92
2021/03/19 05:34:13;;;;;;;4.55;3.13;;;2.10;82.00;;;;;;4994361;28;20065;-91
2021/03/19 05:36:39;;;;;;;4.88;2.90;;;2.10;82.00;;;;;;4993739;28;20053;-92
2021/03/19 05:39:08;;;;;;;5.05;3.05;;;2.10;81.90;;;;;;4992855;28;20065;-90
2021/03/19 05:41:36;;;;;;;4.60;2.72;;;2.10;81.90;;;;;;4975603;28;20133;-91
2021/03/19 05:44:12;;;;;;;3.35;2.40;;;2.10;81.80;;;;;;4992915;28;20048;-90
2021/03/19 05:46:50;;;;;;;5.13;3.08;;;2.10;81.80;;;;;;4979149;28;20022;-90
2021/03/19 05:49:24;;;;;;;4.53;2.80;;;2.10;81.80;;;;;;4994027;28;20026;-91
2021/03/19 05:51:59;;;;;;;3.83;2.50;;;2.10;81.80;;;;;;4994444;28;20447;-91
2021/03/19 05:54:34;;;;;;;3.47;2.65;;;2.10;81.80;;;;;;4994980;28;20109;-91
2021/03/19 05:57:08;;;;;;;4.85;3.05;;;2.10;81.80;;;;;;4995529;28;20030;-90
2021/03/19 05:59:37;;;;;;;5.35;3.25;;;2.10;81.70;;;;;;4993281;28;20035;-90
2021/03/19 06:02:15;;;;;;;6.88;3.20;;;2.10;81.60;;;;;;4993479;28;20084;-90
2021/03/19 06:04:41;;;;;;;4.93;2.90;;;2.10;81.50;;;;;;4994430;28;20038;-90
2021/03/19 06:07:07;;;;;;;3.75;2.70;;;2.10;81.50;;;;;;4994734;28;20069;-90
2021/03/19 06:09:33;;;;;;;4.50;2.58;;;2.10;81.50;;;;;;4994579;28;20030;-90
2021/03/19 06:12:09;;;;;;;3.80;2.53;;;2.10;81.40;;;;;;4994411;28;20021;-89
2021/03/19 06:14:54;;;;;;;4.38;2.78;;;2.20;81.50;;;;;;4991017;28;20029;-90
2021/03/19 06:17:41;;;;;;;5.25;3.05;;;2.30;81.60;;;;;;4992871;28;20041;-90
2021/03/19 06:20:11;;;;;;;4.90;2.90;;;2.40;81.60;;;;;;4993777;28;20042;-89
2021/03/19 06:22:46;;;;;;;4.55;2.80;;;2.50;81.50;;;;;;4994177;28;20145;-92
2021/03/19 06:25:19;;;;;;;4.45;3.10;;;2.60;81.30;;;;;;4993558;28;20014;-92
2021/03/19 06:27:52;;;;;;;;;;;2.70;81.00;;;;;;4994501;28;20044;-96
2021/03/19 06:30:40;;;;;;;4.93;3.20;;;2.80;80.80;;;;;;4994347;28;19916;-95
2021/03/19 06:33:24;;;;;;;4.53;2.50;;;2.90;80.50;;;;;;4998035;28;20034;-88
2021/03/19 06:36:14;;;;;;;4.18;2.53;;;2.90;80.30;;;;;;4993478;28;20026;-88
2021/03/19 06:38:44;;;;;;;5.72;3.35;;;2.90;80.10;;;;;;4991430;28;20026;-89
2021/03/19 06:41:19;;;;;;;5.97;3.40;;;2.90;80.10;;;;;;4992885;28;20034;-90
2021/03/19 06:43:45;;;;;;;5.32;2.92;;;3.00;80.20;;;;;;4983100;28;20496;-88
2021/03/19 06:46:36;;;;;;;5.90;3.70;;;3.00;80.10;;;;;;4984064;28;20026;-88
2021/03/19 06:49:05;;;;;;;6.68;3.42;;;3.00;80.10;;;;;;4987186;28;20126;-88
2021/03/19 06:51:34;;;;;;;5.18;3.10;;;3.10;80.20;;;;;;4988172;28;20019;-87
2021/03/19 06:54:04;;;;;;;5.50;3.25;;;3.10;80.20;;;;;;4983350;28;20033;-88
2021/03/19 06:56:30;;;;;;;6.55;3.33;;;3.10;80.20;;;;;;4988034;28;20026;-90
2021/03/19 06:58:57;;;;;;;6.43;3.30;;;3.20;80.10;;;;;;4990216;28;20030;-87
2021/03/19 07:01:22;;;;;;;4.47;2.80;;;3.30;80.10;;;;;;4984262;28;20110;-88
2021/03/19 07:04:09;;;;;;;5.10;2.72;;;3.30;80.00;;;;;;4984443;28;20126;-87
2021/03/19 07:07:02;;;;;;;6.15;3.22;;;3.40;80.00;;;;;;4983447;28;20037;-90
2021/03/19 07:09:53;;;;;;;5.88;3.08;;;3.40;79.90;;;;;;4993945;28;20050;-91
2021/03/19 07:12:56;;;;;;;4.70;3.10;;;3.50;79.80;;;;;;4980173;28;20044;-90
2021/03/19 07:15:40;;;;;;;6.47;3.35;;;3.60;79.80;;;;;;4987213;28;20764;-91
2021/03/19 07:18:27;;;;;;;7.18;4.00;;;3.60;79.60;;;;;;4988684;28;20409;-90
2021/03/19 07:21:15;;;;;;;6.78;3.75;;;3.70;79.60;;;;;;4988019;28;20042;-90
2021/03/19 07:23:45;;;;;;;4.40;3.13;;;3.80;79.60;;;;;;4973175;28;20030;-91
2021/03/19 07:26:28;;;;;;;8.75;4.03;;;3.70;79.40;;;;;;4992044;28;20393;-91
2021/03/19 07:29:08;;;;;;;5.20;3.50;;;3.90;79.60;;;;;;4991591;28;20164;-91
2021/03/19 07:31:46;;;;;;;7.13;3.65;;;3.90;79.30;;;;;;4986351;28;20027;-91
2021/03/19 07:34:26;;;;;;;6.20;3.08;;;4.00;79.10;;;;;;4987108;28;20113;-91
2021/03/19 07:37:23;;;;;;;4.90;2.70;;;4.10;78.90;;;;;;4993004;28;20109;-93
2021/03/19 07:40:24;;;;;;;4.70;3.17;;;4.10;78.70;;;;;;4990142;28;20030;-90
2021/03/19 07:42:56;;;;;;;4.05;2.45;;;4.20;78.50;;;;;;4947876;28;20075;-91
2021/03/19 07:45:25;;;;;;;4.25;3.08;;;4.30;78.40;;;;;;4982351;28;20026;-90
2021/03/19 07:48:25;;;;;;;4.50;2.60;;;4.30;78.00;;;;;;4993043;28;20030;-91
2021/03/19 07:50:53;;;;;;;6.35;3.00;;;4.40;77.80;;;;;;4987190;28;20509;-92
2021/03/19 07:53:55;;;;;;;4.03;2.55;;;4.50;77.40;;;;;;4993055;28;20373;-92
2021/03/19 07:56:23;;;;;;;3.92;2.47;;;4.60;77.10;;;;;;4992492;28;20037;-92
2021/03/19 07:59:10;;;;;;;4.03;2.10;;;4.70;76.90;;;;;;4991538;28;20468;-92
2021/03/19 08:01:52;;;;;;;3.67;2.00;;;4.70;76.50;;;;;;4985998;28;20097;-92
2021/03/19 08:04:42;;;;;;;5.03;2.33;;;4.80;76.30;;;;;;4980036;28;20027;-94
2021/03/19 08:31:11;;;;;;;1.95;1.60;;;5.60;72.50;;;;;;5258283;23;20059;-96
2021/03/19 11:29:47;;;;;;;3.83;2.20;;;8.40;56.30;;;;;;3404779;23;20356;-96
2021/03/19 11:32:17;;;;;;;3.42;1.90;;;8.40;55.70;;;;;;4983674;28;20058;-96
2021/03/19 11:35:17;;;;;;;;;;;;;;;;;;;;;
2021/03/19 11:37:46;;;;;;;3.60;1.95;;;8.40;54.90;;;;;;4982266;28;20061;-96
2021/03/19 11:45:40;;;;;;;3.47;2.35;;;8.70;53.60;;;;;;4990255;28;20302;-96
2021/03/19 11:48:24;;;;;;;3.15;1.80;;;8.70;53.00;;;;;;4988733;28;20043;-96
2021/03/19 12:14:56;;;;;;;1.92;1.60;;;9.50;50.50;;;;;;4956520;29;20047;-96
2021/03/19 12:56:24;;;;;;;2.20;1.25;;;10.50;46.30;;;;;;6003860;23;20018;-95
2021/03/19 12:58:53;;;;;;;2.28;1.20;;;10.30;42.70;;;;;;5186341;23;20045;-96
2021/03/19 13:01:21;;;;;;;2.80;1.10;;;10.20;43.50;;;;;;4973459;29;20075;-96
2021/03/19 13:06:27;;;;;;;1.33;1.23;;;10.60;44.50;;;;;;4948095;28;20044;-96
2021/03/19 13:08:54;;;;;;;1.30;1.20;;;10.60;44.40;;;;;;4955441;29;20063;-95
2021/03/19 13:11:21;;;;;;;1.30;1.15;;;10.60;43.60;;;;;;4959052;29;20023;-96
2021/03/19 13:13:46;;;;;;;1.10;1.00;;;10.60;43.80;;;;;;4953730;28;20036;-96
2021/03/19 13:16:14;;;;;;;1.10;1.00;;;10.70;44.00;;;;;;4961372;28;20071;-96
2021/03/19 13:18:39;;;;;;;1.70;1.17;;;10.70;43.90;;;;;;4961096;28;20075;-96
2021/03/19 13:21:06;;;;;;;1.30;1.00;;;10.70;43.70;;;;;;4960235;28;20027;-96
2021/03/19 13:23:32;;;;;;;1.95;1.23;;;10.80;43.80;;;;;;4960869;28;20022;-96
2021/03/19 13:25:58;;;;;;;1.52;0.90;;;10.70;42.00;;;;;;4942231;28;20055;-96
2021/03/19 13:28:24;;;;;;;1.00;0.90;;;10.80;43.00;;;;;;4950475;28;20032;-96
2021/03/19 13:31:11;;;;;;;1.25;1.00;;;10.90;43.30;;;;;;4960000;28;20035;-94
2021/03/19 13:33:37;;;;;;;1.20;1.10;;;11.10;43.40;;;;;;4940787;29;20028;-96
2021/03/19 13:36:04;;;;;;;1.95;1.10;;;11.30;43.00;;;;;;4960425;28;20040;-96
2021/03/19 13:38:33;;;;;;;2.08;1.00;;;11.50;42.90;;;;;;4945336;28;20020;-96
2021/03/19 13:54:40;;;;;;;1.42;0.90;;;10.60;43.00;;;;;;4989777;23;20046;-96
2021/03/19 13:57:09;;;;;;;1.73;0.80;;;10.50;44.40;;;;;;4979181;28;20030;-95
2021/03/19 13:59:36;;;;;;;1.15;0.95;;;10.50;44.80;;;;;;4985034;28;20030;-95
2021/03/19 14:02:25;;;;;;;1.25;0.80;;;10.60;45.30;;;;;;4984899;28;20019;-95
2021/03/19 14:05:01;;;;;;;1.10;0.90;;;10.80;45.50;;;;;;4973498;28;20042;-96
2021/03/19 14:07:34;;;;;;;0.77;0.77;;;11.00;45.30;;;;;;4980046;28;20038;-95
2021/03/19 14:10:07;;;;;;;1.48;1.05;;;11.20;45.10;;;;;;4991298;28;20033;-95
2021/03/19 14:12:35;;;;;;;0.80;0.80;;;11.10;44.60;;;;;;4995540;28;20022;-96
2021/03/19 14:15:49;;;;;;;0.98;0.80;;;11.10;45.40;;;;;;4985891;28;20057;-96
2021/03/19 14:19:17;;;;;;;1.17;0.90;;;11.00;45.00;;;;;;4976483;28;20037;-96
2021/03/19 14:22:20;;;;;;;1.05;0.90;;;10.60;45.60;;;;;;4924398;29;20192;-95
2021/03/19 14:25:38;;;;;;;1.88;1.10;;;10.40;46.30;;;;;;4956006;28;20078;-94
2021/03/19 14:33:22;;;;;;;1.55;0.90;;;9.70;49.00;;;;;;5047910;23;20378;-95
2021/03/19 14:35:49;;;;;;;0.98;0.80;;;9.60;49.50;;;;;;4945591;29;20450;-96
2021/03/19 14:38:16;;;;;;;1.13;0.90;;;9.60;49.90;;;;;;4943388;29;20498;-93
2021/03/19 14:40:42;;;;;;;1.23;0.90;;;9.50;50.50;;;;;;4962438;28;20050;-95
2021/03/19 14:43:09;;;;;;;1.00;0.90;;;9.40;50.80;;;;;;4975299;28;20061;-94
2021/03/19 14:45:38;;;;;;;2.05;0.98;;;9.50;51.10;;;;;;4956802;28;20031;-95
2021/03/19 14:48:05;;;;;;;0.90;0.70;;;9.40;51.20;;;;;;4957782;28;20104;-95
2021/03/19 14:50:35;;;;;;;1.00;0.80;;;9.40;51.60;;;;;;4957249;28;20083;-96
2021/03/19 14:53:02;;;;;;;0.70;0.70;;;9.40;51.70;;;;;;4981348;28;20030;-95
2021/03/19 14:55:30;;;;;;;1.02;0.70;;;9.40;51.90;;;;;;4966678;28;20034;-96
2021/03/19 15:04:43;;;;;;;1.23;0.90;;;9.80;52.40;;;;;;4962288;28;20453;-95
2021/03/19 15:07:09;;;;;;;0.73;0.65;;;10.00;51.30;;;;;;4989771;28;20045;-96
2021/03/19 15:09:36;;;;;;;2.45;1.27;;;10.20;51.00;;;;;;4982616;28;20038;-95
2021/03/19 15:12:04;;;;;;;1.48;1.05;;;10.20;49.50;;;;;;4976831;28;20034;-96
2021/03/19 15:14:29;;;;;;;1.17;0.80;;;10.10;50.10;;;;;;4974020;28;20023;-94
2021/03/19 15:16:55;;;;;;;0.90;0.80;;;10.10;50.60;;;;;;4985335;28;20456;-95
2021/03/19 15:19:25;;;;;;;0.90;0.85;;;10.10;50.60;;;;;;4960590;28;20031;-94
2021/03/19 15:21:54;;;;;;;1.45;1.20;;;10.00;50.50;;;;;;4972871;28;20048;-94
2021/03/19 15:24:23;;;;;;;1.77;1.10;;;9.90;50.00;;;;;;4956156;28;20050;-95
2021/03/19 15:26:49;;;;;;;2.55;1.80;;;9.80;50.70;;;;;;4956209;28;20380;-94
2021/03/19 15:30:15;;;;;;;1.10;0.98;;;9.70;51.00;;;;;;4982218;28;20117;-95
2021/03/19 15:40:31;;;;;;;1.70;1.02;;;9.50;51.30;;;;;;5020389;23;20177;-94
2021/03/19 15:46:48;;;;;;;1.73;1.25;;;9.80;51.70;;;;;;4944654;29;20138;-93
2021/03/19 15:49:33;;;;;;;0.90;0.90;;;9.90;51.70;;;;;;4900795;29;20080;-95
2021/03/19 15:52:05;;;;;;;1.77;0.80;;;9.90;51.80;;;;;;4919123;29;20127;-95
2021/03/19 15:54:35;;;;;;;2.33;1.20;;;10.10;51.80;;;;;;4921161;29;20056;-93
2021/03/19 15:57:02;;;;;;;1.80;1.05;;;10.10;51.60;;;;;;4932212;29;20763;-94
2021/03/19 15:59:28;;;;;;;1.00;0.90;;;10.10;51.70;;;;;;4917697;29;20023;-95
2021/03/19 16:02:10;;;;;;;0.93;0.93;;;10.20;51.90;;;;;;4939167;29;20039;-93
2021/03/19 16:04:35;;;;;;;1.58;0.90;;;10.20;51.80;;;;;;4922327;29;20024;-94
2021/03/19 16:07:01;;;;;;;0.80;0.80;;;10.10;51.90;;;;;;4929447;29;20028;-94
2021/03/19 16:09:26;;;;;;;0.70;0.70;;;10.10;52.00;;;;;;4929417;29;20063;-95
2021/03/19 16:11:56;;;;;;;1.15;0.85;;;10.10;52.20;;;;;;4919921;29;20031;-96
2021/03/19 16:14:22;;;;;;;1.45;1.05;;;10.00;52.10;;;;;;4930396;29;20024;-94
2021/03/19 16:16:47;;;;;;;0.75;0.75;;;9.90;52.00;;;;;;4921452;29;20035;-95
2021/03/19 16:19:13;;;;;;;1.33;0.90;;;9.80;52.30;;;;;;4924184;29;20032;-93
2021/03/19 16:21:44;;;;;;;0.85;0.82;;;9.80;52.40;;;;;;4917320;29;20040;-94
2021/03/19 16:24:18;;;;;;;2.45;1.02;;;9.80;52.60;;;;;;4923363;29;20024;-95
2021/03/19 16:26:44;;;;;;;0.77;0.73;;;9.80;52.60;;;;;;4904116;29;20462;-90
2021/03/19 16:29:09;;;;;;;2.92;1.50;;;9.80;52.40;;;;;;4926049;29;20067;-91
2021/03/19 16:31:35;;;;;;;1.27;1.00;;;9.90;52.60;;;;;;4950826;29;20516;-93
2021/03/19 16:34:10;;;;;;;0.95;0.80;;;9.90;52.60;;;;;;4949474;29;20055;-92
2021/03/19 16:36:35;;;;;;;3.88;2.00;;;9.90;52.40;;;;;;4918182;29;20035;-92
2021/03/19 16:39:01;;;;;;;2.05;1.25;;;10.00;52.50;;;;;;4936002;29;20027;-92
2021/03/19 16:41:26;;;;;;;1.17;0.82;;;10.00;51.70;;;;;;4917305;29;20144;-90
2021/03/19 16:43:52;;;;;;;1.15;0.90;;;9.90;51.20;;;;;;4928656;29;20039;-91
2021/03/19 16:46:19;;;;;;;0.65;0.60;;;9.90;51.30;;;;;;4932909;29;20030;-92
2021/03/19 16:48:45;;;;;;;2.17;0.80;;;9.90;51.60;;;;;;4922419;29;20044;-91
2021/03/19 16:51:21;;;;;;;0.88;0.70;;;10.00;51.50;;;;;;4918889;29;20111;-89
2021/03/19 16:53:47;;;;;;;0.60;0.60;;;10.00;51.50;;;;;;4931882;29;20028;-90
2021/03/19 16:56:13;;;;;;;0.68;0.68;;;10.00;51.50;;;;;;4931325;29;20020;-90
2021/03/19 16:58:38;;;;;;;0.70;0.65;;;10.00;51.50;;;;;;4919102;29;20055;-89
2021/03/19 17:01:05;;;;;;;0.93;0.70;;;10.00;51.60;;;;;;4919327;29;20027;-91
2021/03/19 17:03:33;;;;;;;0.70;0.60;;;10.10;51.80;;;;;;4913114;29;20119;-89
2021/03/19 17:06:00;;;;;;;0.65;0.40;;;10.10;51.60;;;;;;4910230;29;20016;-89
2021/03/19 17:08:28;;;;;;;0.68;0.55;;;10.10;51.20;;;;;;4925257;29;20114;-88
2021/03/19 17:10:59;;;;;;;1.05;0.65;;;10.10;51.20;;;;;;4933882;29;20052;-89
2021/03/19 17:13:26;;;;;;;0.52;0.52;;;10.00;50.80;;;;;;4933937;29;20020;-90
2021/03/19 17:15:51;;;;;;;0.65;0.60;;;9.90;50.50;;;;;;4908064;29;21144;-88
2021/03/19 17:18:17;;;;;;;0.50;0.50;;;9.90;50.30;;;;;;4915612;29;20066;-89
2021/03/19 17:20:43;;;;;;;0.52;0.52;;;9.70;49.90;;;;;;4926140;29;20032;-89
2021/03/19 17:23:12;;;;;;;0.60;0.60;;;9.70;50.60;;;;;;4922863;29;20470;-88
2021/03/19 17:25:41;;;;;;;0.65;0.65;;;9.60;50.20;;;;;;4916227;29;20023;-88
2021/03/19 17:28:09;;;;;;;0.80;0.60;;;9.50;50.50;;;;;;4931082;29;20040;-89
2021/03/19 17:30:35;;;;;;;1.13;0.80;;;9.40;50.60;;;;;;4927702;29;20016;-88
2021/03/19 17:33:01;;;;;;;0.65;0.60;;;9.40;50.90;;;;;;4923272;29;20043;-88
2021/03/19 17:35:34;;;;;;;1.10;0.60;;;9.40;51.30;;;;;;4916074;29;20039;-88
2021/03/19 17:38:00;;;;;;;1.73;0.88;;;9.20;51.20;;;;;;4920531;29;20030;-89
2021/03/19 17:40:26;;;;;;;1.17;0.95;;;9.20;51.50;;;;;;4912045;29;20024;-88
2021/03/19 17:42:51;;;;;;;0.80;0.75;;;9.10;51.50;;;;;;4921056;29;20039;-90
2021/03/19 17:45:26;;;;;;;1.10;0.70;;;9.00;52.30;;;;;;4917827;29;20032;-90
2021/03/19 17:47:52;;;;;;;1.27;0.88;;;8.90;51.80;;;;;;4932888;29;20035;-90
2021/03/19 17:50:19;;;;;;;1.05;0.80;;;8.90;52.10;;;;;;4926371;29;20075;-90
2021/03/19 17:52:47;;;;;;;1.38;0.63;;;8.80;52.40;;;;;;4911109;29;20020;-91
2021/03/19 17:55:13;;;;;;;0.65;0.60;;;8.80;52.60;;;;;;4917825;29;20031;-90
2021/03/19 17:57:39;;;;;;;1.10;0.70;;;8.70;52.80;;;;;;4917277;29;20027;-90
2021/03/19 18:00:05;;;;;;;0.70;0.70;;;8.60;52.80;;;;;;4918512;29;20028;-90
2021/03/19 18:02:31;;;;;;;0.70;0.70;;;8.60;53.10;;;;;;4927471;29;20024;-90
2021/03/19 18:04:57;;;;;;;0.60;0.60;;;8.50;53.20;;;;;;4919923;29;20325;-90
2021/03/19 18:07:22;;;;;;;1.08;0.73;;;8.50;53.50;;;;;;4923998;29;20032;-90
2021/03/19 18:09:48;;;;;;;0.95;0.70;;;8.40;53.50;;;;;;4921185;29;20039;-90
2021/03/19 18:12:14;;;;;;;1.08;0.80;;;8.30;54.40;;;;;;4933318;29;20023;-91
2021/03/19 18:14:40;;;;;;;1.48;0.80;;;8.40;54.00;;;;;;4928599;29;20026;-90
2021/03/19 18:17:05;;;;;;;1.05;0.88;;;8.30;54.00;;;;;;4922359;29;20135;-91
2021/03/19 18:19:31;;;;;;;1.77;0.93;;;8.20;54.10;;;;;;4927108;29;20093;-92
2021/03/19 18:22:05;;;;;;;1.30;0.80;;;8.10;54.30;;;;;;4934058;29;20023;-92
2021/03/19 18:24:31;;;;;;;1.70;1.05;;;8.10;54.60;;;;;;4923913;29;20084;-94
2021/03/19 18:26:58;;;;;;;1.63;1.00;;;8.00;54.70;;;;;;4917003;29;20024;-95
2021/03/19 18:29:24;;;;;;;1.52;1.00;;;8.00;55.00;;;;;;4920022;29;20039;-94
2021/03/19 18:31:52;;;;;;;2.28;1.13;;;7.90;55.10;;;;;;4936661;29;20078;-94